Time;durP1;ratioP1;P1;durP2;ratioP2;P2;SDS_P1;SDS_P2;PMS_P1;PMS_P2;Temp;Humidity;BMP_temperature;BMP_pressure;BME280_temperature;BME280_humidity;BME280_pressure;Samples;Min_cycle;Max_cycle;Signal;HPM_P1;HPM_P2
2021/04/12 00:01:27;;;;;;;6.22;3.17;;;4.70;99.90;;;;;;5081934;28;20273;-81
2021/04/12 00:04:01;;;;;;;4.00;2.72;;;4.70;99.90;;;;;;5085638;28;20267;-81
2021/04/12 00:06:36;;;;;;;6.35;3.63;;;4.60;99.90;;;;;;5037574;28;20267;-81
2021/04/12 00:09:10;;;;;;;6.72;3.58;;;4.60;99.90;;;;;;5084427;28;20194;-81
2021/04/12 00:11:44;;;;;;;4.88;2.80;;;4.70;99.90;;;;;;5074336;28;20286;-80
2021/04/12 00:14:17;;;;;;;8.93;3.17;;;4.60;99.90;;;;;;5065731;28;20225;-79
2021/04/12 00:16:49;;;;;;;5.07;3.05;;;4.50;99.90;;;;;;5075434;28;20269;-79
2021/04/12 00:19:21;;;;;;;5.68;3.03;;;4.40;99.90;;;;;;5073564;28;20182;-80
2021/04/12 00:21:53;;;;;;;5.57;3.30;;;4.50;99.90;;;;;;5063517;28;20195;-80
2021/04/12 00:24:26;;;;;;;8.57;5.20;;;4.30;99.90;;;;;;5057243;28;20245;-80
2021/04/12 00:26:59;;;;;;;3.17;2.38;;;4.40;99.90;;;;;;5071546;28;20202;-80
2021/04/12 00:29:31;;;;;;;5.35;2.92;;;4.50;99.90;;;;;;5073029;28;20234;-80
2021/04/12 00:32:02;;;;;;;4.82;3.08;;;4.40;99.90;;;;;;5090944;28;20266;-81
2021/04/12 00:34:33;;;;;;;3.65;2.72;;;4.40;99.90;;;;;;5096238;28;20268;-82
2021/04/12 00:37:05;;;;;;;4.30;2.58;;;4.30;99.90;;;;;;5095173;28;20201;-84
2021/04/12 00:39:38;;;;;;;6.90;3.60;;;4.40;99.90;;;;;;5062269;28;20413;-80
2021/04/12 00:42:15;;;;;;;4.00;2.25;;;4.40;99.90;;;;;;5089936;28;20277;-80
2021/04/12 00:45:12;;;;;;;3.63;2.90;;;4.30;99.90;;;;;;5079793;28;20230;-81
2021/04/12 00:47:48;;;;;;;10.23;3.38;;;4.20;99.90;;;;;;5054383;28;20266;-81
2021/04/12 00:50:39;;;;;;;4.00;2.50;;;4.10;99.90;;;;;;5064459;28;20206;-82
2021/04/12 00:53:35;;;;;;;4.85;3.42;;;4.20;99.90;;;;;;5049567;28;20233;-80
2021/04/12 00:56:22;;;;;;;5.45;2.53;;;4.20;99.90;;;;;;5046064;28;20603;-81
2021/04/12 00:58:58;;;;;;;5.05;2.80;;;4.20;99.90;;;;;;5044467;28;20198;-81
2021/04/12 01:01:44;;;;;;;5.13;3.03;;;4.20;99.90;;;;;;5060684;28;20198;-80
2021/04/12 01:04:34;;;;;;;5.78;3.45;;;4.10;99.90;;;;;;5060699;28;20297;-80
2021/04/12 01:07:26;;;;;;;3.53;3.03;;;4.20;99.90;;;;;;5061255;28;20336;-80
2021/04/12 01:10:22;;;;;;;9.13;3.03;;;4.20;99.90;;;;;;5080011;28;20266;-80
2021/04/12 01:13:22;;;;;;;6.10;3.33;;;4.10;99.90;;;;;;5096992;28;20197;-83
2021/04/12 01:16:23;;;;;;;4.80;3.33;;;4.10;99.90;;;;;;5099856;28;20194;-84
2021/04/12 01:18:59;;;;;;;3.83;3.10;;;4.00;99.90;;;;;;5071534;28;20214;-81
2021/04/12 01:22:15;;;;;;;6.07;3.95;;;3.90;99.90;;;;;;5063214;28;20202;-80
2021/04/12 01:25:32;;;;;;;6.80;3.20;;;3.90;99.90;;;;;;5064198;28;20219;-79
2021/04/12 01:28:50;;;;;;;5.38;3.78;;;3.90;99.90;;;;;;5060291;28;20195;-80
2021/04/12 01:31:51;;;;;;;7.72;4.07;;;3.80;99.90;;;;;;5068421;28;20195;-80
2021/04/12 01:35:00;;;;;;;4.13;3.42;;;3.80;99.90;;;;;;5060751;28;20226;-80
2021/04/12 01:37:52;;;;;;;6.53;3.40;;;3.70;99.90;;;;;;5008482;28;20303;-80
2021/04/12 01:40:29;;;;;;;3.60;3.25;;;3.80;99.90;;;;;;5058623;28;20741;-80
2021/04/12 01:43:10;;;;;;;3.83;3.53;;;3.70;99.90;;;;;;5076655;28;20585;-81
2021/04/12 01:45:46;;;;;;;4.40;2.97;;;3.70;99.90;;;;;;5077252;28;20214;-80
2021/04/12 01:48:48;;;;;;;3.88;3.58;;;3.70;99.90;;;;;;5059662;28;20341;-79
2021/04/12 01:51:35;;;;;;;5.90;2.75;;;3.70;99.90;;;;;;5066583;28;20246;-80
2021/04/12 01:54:30;;;;;;;7.35;2.95;;;3.60;99.90;;;;;;5076460;28;20733;-80
2021/04/12 01:57:21;;;;;;;5.50;3.07;;;3.60;99.90;;;;;;5076160;28;20186;-80
2021/04/12 02:00:01;;;;;;;3.20;2.93;;;3.60;99.90;;;;;;5076629;28;20200;-80
2021/04/12 02:02:41;;;;;;;5.35;3.28;;;3.60;99.90;;;;;;5076153;28;20181;-80
2021/04/12 02:05:30;;;;;;;5.55;3.33;;;3.50;99.90;;;;;;5058822;28;20279;-81
2021/04/12 02:08:22;;;;;;;6.20;3.03;;;3.50;99.90;;;;;;5061260;28;20195;-81
2021/04/12 02:11:16;;;;;;;5.78;3.03;;;3.40;99.90;;;;;;5060143;28;20632;-81
2021/04/12 02:14:30;;;;;;;5.35;2.78;;;3.40;99.90;;;;;;5056661;28;20210;-80
2021/04/12 02:17:05;;;;;;;6.35;2.70;;;3.30;99.90;;;;;;5092880;28;20202;-82
2021/04/12 02:19:43;;;;;;;7.63;3.08;;;3.30;99.90;;;;;;5092283;28;20214;-80
2021/04/12 02:22:36;;;;;;;3.87;3.13;;;3.50;99.90;;;;;;5092972;28;20182;-81
2021/04/12 02:25:14;;;;;;;4.75;3.10;;;3.50;99.90;;;;;;5091821;28;20198;-80
2021/04/12 02:27:51;;;;;;;4.78;2.90;;;3.40;99.90;;;;;;5095024;28;20197;-82
2021/04/12 02:30:24;;;;;;;7.80;4.57;;;3.40;99.90;;;;;;5090562;28;20209;-82
2021/04/12 02:33:03;;;;;;;4.00;3.63;;;3.30;99.90;;;;;;5073831;28;20214;-81
2021/04/12 02:35:39;;;;;;;3.92;3.13;;;3.20;99.90;;;;;;5092534;28;20206;-82
2021/04/12 02:38:29;;;;;;;3.85;3.55;;;3.20;99.90;;;;;;5076335;28;20194;-82
2021/04/12 02:41:08;;;;;;;4.28;3.88;;;3.30;99.90;;;;;;5059168;28;20190;-79
2021/04/12 02:43:56;;;;;;;7.90;3.80;;;3.50;99.90;;;;;;5072840;28;20242;-82
2021/04/12 02:46:41;;;;;;;8.02;4.00;;;3.30;99.90;;;;;;5076651;28;20190;-82
2021/04/12 02:49:16;;;;;;;3.75;3.15;;;3.20;99.90;;;;;;5093334;28;20222;-80
2021/04/12 02:51:58;;;;;;;7.13;3.38;;;3.20;99.90;;;;;;5088103;28;20198;-80
2021/04/12 02:54:46;;;;;;;8.00;3.92;;;3.20;99.90;;;;;;5089913;28;20238;-80
2021/04/12 02:57:27;;;;;;;7.10;3.50;;;3.20;99.90;;;;;;5094461;28;20175;-82
2021/04/12 03:00:26;;;;;;;5.10;3.65;;;3.20;99.90;;;;;;5077113;28;20213;-82
2021/04/12 03:03:12;;;;;;;5.63;3.67;;;3.00;99.90;;;;;;5096834;28;20219;-83
2021/04/12 03:06:07;;;;;;;5.20;3.80;;;3.00;99.90;;;;;;5055553;28;20260;-81
2021/04/12 03:08:57;;;;;;;3.50;3.20;;;3.00;99.90;;;;;;5044776;28;20199;-81
2021/04/12 03:11:50;;;;;;;6.38;3.97;;;3.00;99.90;;;;;;5075805;28;20183;-81
2021/04/12 03:14:52;;;;;;;4.77;3.57;;;3.10;99.90;;;;;;5090362;28;20211;-82
2021/04/12 03:17:48;;;;;;;4.80;3.50;;;3.10;99.90;;;;;;5089412;28;20198;-81
2021/04/12 03:20:30;;;;;;;5.37;3.77;;;3.10;99.90;;;;;;5089120;28;20191;-82
2021/04/12 03:23:26;;;;;;;7.40;4.32;;;3.00;99.90;;;;;;5089136;28;20222;-79
2021/04/12 03:26:05;;;;;;;6.20;4.47;;;3.10;99.90;;;;;;5039532;28;20198;-81
2021/04/12 03:28:50;;;;;;;5.25;3.58;;;3.00;99.90;;;;;;5089583;28;20262;-82
2021/04/12 03:31:32;;;;;;;6.00;3.17;;;3.10;99.90;;;;;;5089435;28;20191;-81
2021/04/12 03:34:23;;;;;;;9.77;4.07;;;2.90;99.90;;;;;;5089529;28;20306;-82
2021/04/12 03:37:26;;;;;;;4.15;3.40;;;3.00;99.90;;;;;;5071256;28;20191;-82
2021/04/12 03:39:56;;;;;;;4.65;4.18;;;3.10;99.90;;;;;;5090360;28;20221;-82
2021/04/12 03:42:53;;;;;;;6.63;4.30;;;2.90;99.90;;;;;;5090574;28;20229;-82
2021/04/12 03:45:46;;;;;;;5.70;4.60;;;3.00;99.90;;;;;;5086926;28;20202;-82
2021/04/12 03:48:39;;;;;;;6.77;3.87;;;3.00;99.90;;;;;;5070481;28;20266;-82
2021/04/12 03:51:30;;;;;;;5.90;4.10;;;3.00;99.90;;;;;;5089802;28;20194;-83
2021/04/12 03:54:32;;;;;;;5.13;3.47;;;2.90;99.90;;;;;;5088183;28;20218;-82
2021/04/12 03:57:22;;;;;;;7.95;4.57;;;3.00;99.90;;;;;;5085583;28;20201;-82
2021/04/12 04:00:07;;;;;;;8.13;4.60;;;3.10;99.90;;;;;;5090504;28;20223;-79
2021/04/12 04:02:45;;;;;;;4.87;4.00;;;2.90;99.90;;;;;;5090313;28;20205;-84
2021/04/12 04:05:28;;;;;;;4.90;4.17;;;3.00;99.90;;;;;;5095183;28;20218;-82
2021/04/12 04:08:19;;;;;;;5.43;3.73;;;3.00;99.90;;;;;;5077883;28;20524;-82
2021/04/12 04:11:07;;;;;;;5.13;4.03;;;3.00;99.90;;;;;;5057461;28;20226;-82
2021/04/12 04:13:42;;;;;;;4.85;4.22;;;2.90;99.90;;;;;;5076527;28;20286;-82
2021/04/12 04:16:18;;;;;;;4.78;3.17;;;2.90;99.90;;;;;;5082830;28;20233;-82
2021/04/12 04:18:54;;;;;;;5.43;3.70;;;3.00;99.90;;;;;;5075576;28;20175;-83
2021/04/12 04:22:03;;;;;;;5.10;3.93;;;2.80;99.90;;;;;;5083064;28;20206;-82
2021/04/12 04:24:56;;;;;;;3.78;3.15;;;2.90;99.90;;;;;;5082892;28;20213;-83
2021/04/12 04:28:06;;;;;;;5.82;4.47;;;2.90;99.90;;;;;;5083241;28;20179;-82
2021/04/12 04:30:59;;;;;;;10.80;4.03;;;3.10;99.90;;;;;;5066395;28;20234;-80
2021/04/12 04:33:50;;;;;;;4.40;4.00;;;3.00;99.90;;;;;;5079158;28;20231;-82
2021/04/12 04:36:29;;;;;;;6.28;3.80;;;2.90;99.90;;;;;;5058228;28;20206;-81
2021/04/12 04:39:30;;;;;;;4.30;3.45;;;2.90;99.90;;;;;;5074609;28;20202;-82
2021/04/12 04:42:12;;;;;;;4.68;4.20;;;3.00;99.90;;;;;;5086540;28;20199;-81
2021/04/12 04:44:56;;;;;;;7.07;4.18;;;3.10;99.90;;;;;;5094377;28;20257;-81
2021/04/12 04:47:41;;;;;;;11.80;4.68;;;3.00;99.90;;;;;;5093529;28;20218;-81
2021/04/12 04:50:36;;;;;;;6.82;5.13;;;2.90;99.90;;;;;;5092367;28;20233;-81
2021/04/12 04:53:17;;;;;;;5.07;4.45;;;3.00;99.90;;;;;;5057105;28;20227;-81
2021/04/12 04:56:04;;;;;;;8.80;4.67;;;3.00;99.90;;;;;;5085652;28;20255;-82
2021/04/12 04:58:49;;;;;;;9.95;4.30;;;3.00;99.90;;;;;;5090458;28;20202;-80
2021/04/12 05:01:50;;;;;;;7.75;3.88;;;2.80;99.90;;;;;;5090347;28;20195;-81
2021/04/12 05:04:31;;;;;;;9.27;4.13;;;2.80;99.90;;;;;;5084744;28;20248;-80
2021/04/12 05:07:39;;;;;;;5.43;4.53;;;2.90;99.90;;;;;;5091987;28;20194;-81
2021/04/12 05:10:47;;;;;;;5.80;4.03;;;2.90;99.90;;;;;;5091518;28;20301;-81
2021/04/12 05:13:33;;;;;;;4.50;4.05;;;3.00;99.90;;;;;;5049711;28;20215;-80
2021/04/12 05:16:22;;;;;;;4.22;3.65;;;3.00;99.90;;;;;;5073575;28;20179;-80
2021/04/12 05:19:14;;;;;;;6.72;3.75;;;3.00;99.90;;;;;;5089344;28;20587;-81
2021/04/12 05:21:54;;;;;;;11.23;3.92;;;3.00;99.90;;;;;;5099908;28;20171;-83
2021/04/12 05:24:36;;;;;;;4.45;3.00;;;3.20;99.90;;;;;;5099877;28;20202;-82
2021/04/12 05:27:26;;;;;;;3.80;3.47;;;3.30;99.90;;;;;;5099625;28;20195;-83
2021/04/12 05:30:23;;;;;;;10.98;3.45;;;3.20;99.90;;;;;;5099531;28;20218;-82
2021/04/12 05:33:01;;;;;;;5.60;4.07;;;3.20;99.90;;;;;;5065474;28;20206;-83
2021/04/12 05:35:39;;;;;;;3.80;3.38;;;3.20;99.90;;;;;;5082092;28;20208;-82
2021/04/12 05:38:31;;;;;;;3.17;2.88;;;3.10;99.90;;;;;;5099152;28;20167;-82
2021/04/12 05:41:23;;;;;;;7.47;3.05;;;3.20;99.90;;;;;;5100026;28;20187;-82
2021/04/12 05:44:21;;;;;;;4.00;2.88;;;3.30;99.90;;;;;;5054363;28;20217;-82
2021/04/12 05:47:03;;;;;;;6.85;3.28;;;3.30;99.90;;;;;;5046051;28;20225;-82
2021/04/12 05:50:02;;;;;;;7.63;3.58;;;3.50;99.90;;;;;;5099471;28;20247;-82
2021/04/12 05:52:43;;;;;;;6.03;3.40;;;3.50;99.90;;;;;;5099095;28;20171;-82
2021/04/12 05:55:23;;;;;;;10.63;3.90;;;3.50;99.90;;;;;;5098866;28;20181;-82
2021/04/12 05:58:16;;;;;;;6.13;4.63;;;3.50;99.90;;;;;;5081367;28;20246;-83
2021/04/12 06:00:59;;;;;;;8.30;4.50;;;3.40;99.90;;;;;;5071910;28;20229;-82
2021/04/12 06:03:53;;;;;;;5.95;2.97;;;3.50;99.90;;;;;;5081353;28;20210;-82
2021/04/12 06:06:55;;;;;;;4.45;3.33;;;3.60;99.90;;;;;;5098282;28;20186;-83
2021/04/12 06:09:35;;;;;;;5.18;3.25;;;3.70;99.90;;;;;;5098959;28;20258;-83
2021/04/12 06:12:41;;;;;;;4.63;3.30;;;3.80;99.90;;;;;;5098404;28;20218;-83
2021/04/12 06:15:45;;;;;;;3.65;3.28;;;3.80;99.90;;;;;;5088917;28;20201;-83
2021/04/12 06:18:46;;;;;;;5.47;3.83;;;3.70;99.90;;;;;;5080831;28;20200;-83
2021/04/12 06:21:36;;;;;;;8.20;4.03;;;3.80;99.90;;;;;;5096847;28;20210;-82
2021/04/12 06:24:41;;;;;;;3.92;3.58;;;3.70;99.90;;;;;;5055750;28;20225;-84
2021/04/12 06:27:38;;;;;;;5.03;3.25;;;3.80;99.90;;;;;;5076007;28;20229;-83
2021/04/12 06:30:38;;;;;;;5.28;3.70;;;3.80;99.90;;;;;;5069614;28;20218;-82
2021/04/12 06:33:20;;;;;;;3.65;3.33;;;3.70;99.90;;;;;;5053025;28;20242;-81
2021/04/12 06:36:03;;;;;;;5.93;3.35;;;3.80;99.90;;;;;;5088663;28;20206;-81
2021/04/12 06:38:59;;;;;;;5.03;3.83;;;3.90;99.90;;;;;;5071529;28;20198;-81
2021/04/12 06:42:05;;;;;;;4.90;2.83;;;3.90;99.90;;;;;;5057252;28;20190;-80
2021/04/12 06:45:04;;;;;;;5.75;3.15;;;3.90;99.90;;;;;;5076385;28;20218;-83
2021/04/12 06:48:19;;;;;;;3.40;3.08;;;4.00;99.90;;;;;;5077180;28;20210;-84
2021/04/12 06:51:21;;;;;;;7.88;2.67;;;4.20;99.90;;;;;;5079145;28;20233;-83
2021/04/12 06:54:27;;;;;;;5.00;2.63;;;4.40;99.90;;;;;;5077199;28;20207;-83
2021/04/12 06:57:33;;;;;;;4.20;2.65;;;4.50;99.90;;;;;;5070132;28;20201;-85
2021/04/12 07:00:53;;;;;;;3.97;2.25;;;4.50;99.90;;;;;;5079732;28;20200;-84
2021/04/12 07:03:58;;;;;;;5.50;2.87;;;4.50;99.90;;;;;;5076301;28;20222;-82
2021/04/12 07:06:43;;;;;;;2.58;2.05;;;4.50;99.90;;;;;;5090499;28;20177;-84
2021/04/12 07:09:43;;;;;;;3.53;2.65;;;4.70;99.90;;;;;;5096374;28;20208;-84
2021/04/12 07:12:54;;;;;;;9.10;3.85;;;4.70;99.90;;;;;;5098810;28;20199;-85
2021/04/12 07:16:03;;;;;;;8.27;2.45;;;5.10;99.90;;;;;;5096546;28;20198;-84
2021/04/12 07:19:06;;;;;;;8.02;2.83;;;5.10;99.90;;;;;;5073412;28;20194;-83
2021/04/12 07:22:07;;;;;;;4.75;2.88;;;5.00;99.90;;;;;;5086124;28;20185;-81
2021/04/12 07:25:12;;;;;;;4.90;2.40;;;5.10;99.90;;;;;;5078220;28;20285;-83
2021/04/12 07:28:19;;;;;;;4.65;2.45;;;5.40;99.90;;;;;;5067440;28;20213;-83
2021/04/12 07:31:37;;;;;;;8.02;2.78;;;5.60;99.90;;;;;;5087097;28;20217;-82
2021/04/12 07:34:39;;;;;;;5.63;3.15;;;5.50;99.90;;;;;;5101854;28;20232;-82
2021/04/12 07:37:51;;;;;;;4.97;2.50;;;5.30;99.90;;;;;;5100728;28;20205;-82
2021/04/12 07:40:54;;;;;;;5.60;2.83;;;5.30;99.90;;;;;;5081925;28;20194;-82
2021/04/12 07:44:05;;;;;;;6.25;3.10;;;5.30;99.90;;;;;;5094976;28;20217;-81
2021/04/12 07:47:20;;;;;;;4.82;2.60;;;5.40;99.90;;;;;;5057754;28;20225;-83
2021/04/12 07:50:21;;;;;;;7.47;2.93;;;5.50;99.90;;;;;;5080931;28;20218;-83
2021/04/12 07:53:40;;;;;;;4.28;2.67;;;5.50;99.90;;;;;;5080226;28;20260;-81
2021/04/12 07:56:40;;;;;;;9.43;3.13;;;5.30;99.90;;;;;;5095703;28;20194;-82
2021/04/12 07:59:53;;;;;;;4.53;2.63;;;5.20;99.90;;;;;;5060142;28;20210;-83
2021/04/12 08:02:53;;;;;;;4.28;3.00;;;5.40;99.90;;;;;;5012387;28;20216;-82
2021/04/12 08:05:58;;;;;;;5.10;2.57;;;5.70;99.90;;;;;;5099378;28;20186;-85
2021/04/12 08:08:37;;;;;;;7.43;3.03;;;5.70;99.90;;;;;;5110676;28;20213;-82
2021/04/12 08:12:00;;;;;;;7.05;2.90;;;5.70;99.90;;;;;;5091150;28;20281;-83
2021/04/12 08:15:11;;;;;;;3.80;2.25;;;5.90;99.90;;;;;;5098242;28;20223;-85
2021/04/12 08:18:11;;;;;;;4.32;3.40;;;6.00;99.90;;;;;;5082025;28;20195;-85
2021/04/12 08:21:12;;;;;;;8.27;3.05;;;6.00;99.90;;;;;;5092205;28;20247;-85
2021/04/12 08:24:12;;;;;;;3.93;2.33;;;6.20;99.90;;;;;;5089967;28;20218;-85
2021/04/12 08:27:03;;;;;;;4.85;1.85;;;6.20;99.90;;;;;;5062391;28;20205;-84
2021/04/12 08:30:15;;;;;;;2.65;1.75;;;6.40;99.90;;;;;;5059763;28;20261;-84
2021/04/12 08:33:23;;;;;;;5.40;1.90;;;6.60;99.90;;;;;;5070898;28;20486;-81
2021/04/12 08:36:40;;;;;;;5.32;2.50;;;6.40;99.90;;;;;;5080626;28;20195;-81
2021/04/12 08:39:44;;;;;;;3.80;1.85;;;6.30;99.90;;;;;;5083028;28;20203;-81
2021/04/12 08:42:42;;;;;;;2.65;1.95;;;6.50;99.90;;;;;;5062839;28;20198;-81
2021/04/12 08:45:35;;;;;;;10.40;2.35;;;6.40;99.90;;;;;;5058985;28;20195;-82
2021/04/12 08:48:38;;;;;;;3.42;2.97;;;6.70;99.90;;;;;;5044536;28;20625;-82
2021/04/12 08:51:30;;;;;;;4.97;2.35;;;6.90;99.90;;;;;;5029934;28;20258;-82
2021/04/12 08:54:39;;;;;;;4.95;2.38;;;7.30;99.90;;;;;;5091969;28;20226;-82
2021/04/12 08:57:44;;;;;;;5.80;2.20;;;7.50;99.90;;;;;;5087032;28;20190;-83
2021/04/12 09:00:40;;;;;;;3.22;2.22;;;7.80;99.90;;;;;;5085663;28;20186;-82
2021/04/12 09:03:34;;;;;;;2.70;1.88;;;7.80;99.90;;;;;;5062849;28;20226;-82
2021/04/12 09:06:31;;;;;;;4.03;2.00;;;7.50;99.90;;;;;;5089258;28;20192;-82
2021/04/12 09:09:37;;;;;;;4.25;1.80;;;7.40;99.90;;;;;;5074986;28;20564;-82
2021/04/12 09:12:48;;;;;;;4.53;2.53;;;7.30;99.90;;;;;;5078690;28;20198;-80
2021/04/12 09:15:50;;;;;;;2.70;1.60;;;7.30;99.90;;;;;;5079990;28;20225;-82
2021/04/12 09:18:51;;;;;;;5.13;1.83;;;7.10;99.90;;;;;;5071987;28;20202;-82
2021/04/12 09:21:36;;;;;;;3.50;1.40;;;6.80;99.90;;;;;;5018246;28;20203;-81
2021/04/12 09:24:30;;;;;;;5.35;1.73;;;6.90;99.90;;;;;;5071649;28;20221;-84
2021/04/12 09:27:29;;;;;;;3.60;1.90;;;7.20;99.90;;;;;;5102659;28;20197;-83
2021/04/12 09:30:35;;;;;;;5.38;2.40;;;7.70;99.90;;;;;;5096965;28;20211;-84
2021/04/12 09:33:45;;;;;;;4.82;2.17;;;7.50;99.90;;;;;;5069148;28;20235;-82
2021/04/12 09:36:36;;;;;;;3.40;1.63;;;7.30;99.90;;;;;;5092405;28;20200;-82
2021/04/12 09:39:29;;;;;;;4.15;1.25;;;7.20;99.90;;;;;;5043382;28;20263;-83
2021/04/12 09:42:28;;;;;;;5.75;2.35;;;6.90;99.90;;;;;;5083427;28;20214;-81
2021/04/12 09:45:38;;;;;;;3.58;1.60;;;7.10;99.90;;;;;;5087968;28;20202;-82
2021/04/12 09:48:48;;;;;;;3.83;3.20;;;7.70;99.90;;;;;;5076473;28;20650;-82
2021/04/12 09:51:45;;;;;;;4.55;2.10;;;8.20;99.90;;;;;;5075049;28;20615;-83
2021/04/12 09:54:44;;;;;;;4.65;1.83;;;8.10;99.90;;;;;;5102429;28;20234;-84
2021/04/12 09:57:48;;;;;;;3.67;1.60;;;7.80;99.90;;;;;;5096856;28;20251;-83
2021/04/12 10:00:39;;;;;;;2.70;1.40;;;7.50;99.90;;;;;;5063792;28;20221;-83
2021/04/12 10:03:39;;;;;;;1.88;1.33;;;7.60;99.90;;;;;;5094619;28;20202;-84
2021/04/12 10:06:36;;;;;;;2.60;1.20;;;8.00;99.90;;;;;;5091081;28;20195;-82
2021/04/12 10:09:42;;;;;;;5.60;1.40;;;8.10;99.90;;;;;;5080973;28;20202;-82
2021/04/12 10:12:29;;;;;;;2.05;1.50;;;8.40;99.90;;;;;;5078687;28;20598;-82
2021/04/12 10:15:01;;;;;;;5.97;1.70;;;8.50;99.90;;;;;;5078978;28;20843;-83
2021/04/12 10:17:39;;;;;;;4.85;1.95;;;8.30;99.90;;;;;;5072490;28;20268;-83
2021/04/12 10:20:14;;;;;;;2.20;1.63;;;8.10;99.90;;;;;;5043827;28;20244;-83
2021/04/12 10:22:50;;;;;;;2.58;1.02;;;7.70;99.90;;;;;;5076407;28;20276;-83
2021/04/12 10:25:37;;;;;;;2.30;1.33;;;7.70;99.90;;;;;;5106872;27;20540;-36
2021/04/12 10:28:17;;;;;;;7.25;2.15;;;7.80;99.90;;;;;;5087705;28;20222;-35
2021/04/12 10:30:51;;;;;;;5.80;2.75;;;7.80;99.90;;;;;;5086709;28;20292;-36
2021/04/12 10:33:28;;;;;;;3.60;1.80;;;8.20;99.90;;;;;;5085979;28;20209;-37
2021/04/12 10:35:59;;;;;;;2.70;1.27;;;8.70;99.90;;;;;;5099431;22;20202;-37
2021/04/12 10:38:29;;;;;;;4.20;1.50;;;8.90;99.90;;;;;;5026191;28;20274;-37
2021/04/12 10:41:07;;;;;;;3.97;1.60;;;8.70;99.90;;;;;;5026153;28;20544;-35
2021/04/12 10:43:42;;;;;;;2.17;1.65;;;8.50;99.90;;;;;;5026873;28;20212;-36
2021/04/12 10:46:18;;;;;;;2.60;1.67;;;8.30;99.90;;;;;;5009794;28;20223;-36
2021/04/12 10:48:50;;;;;;;2.38;1.30;;;8.40;99.90;;;;;;4991617;28;20207;-38
2021/04/12 10:51:28;;;;;;;3.42;1.98;;;8.60;99.90;;;;;;5007251;28;20738;-37
2021/04/12 10:54:28;;;;;;;1.85;1.23;;;8.20;99.90;;;;;;5007731;28;20800;-36
2021/04/12 10:57:04;;;;;;;2.05;1.33;;;8.20;99.90;;;;;;4994996;28;20854;-35
2021/04/12 10:59:59;;;;;;;1.42;1.33;;;8.10;99.90;;;;;;5007738;28;20239;-36
2021/04/12 11:02:44;;;;;;;4.13;1.63;;;8.50;99.90;;;;;;4991707;28;20643;-36
2021/04/12 11:05:26;;;;;;;3.67;1.73;;;8.60;99.90;;;;;;4988069;28;20240;-37
2021/04/12 11:08:02;;;;;;;3.40;1.80;;;8.90;99.90;;;;;;5003978;28;20335;-35
2021/04/12 11:10:38;;;;;;;2.50;1.50;;;9.00;99.90;;;;;;5007261;28;20204;-36
2021/04/12 11:13:10;;;;;;;1.17;0.95;;;9.50;99.90;;;;;;5006875;28;20189;-35
2021/04/12 11:16:05;;;;;;;1.13;0.90;;;9.90;99.90;;;;;;4998359;28;20212;-37
2021/04/12 11:18:35;;;;;;;1.13;0.90;;;9.90;99.90;;;;;;4989739;28;20458;-36
2021/04/12 11:21:12;;;;;;;4.75;1.48;;;10.30;99.90;;;;;;4998165;28;20196;-36
2021/04/12 11:23:49;;;;;;;1.70;1.20;;;10.70;99.90;;;;;;5003760;28;20243;-36
2021/04/12 11:26:23;;;;;;;3.08;1.33;;;11.00;99.90;;;;;;4985820;28;20445;-37
2021/04/12 11:28:57;;;;;;;2.78;1.20;;;10.80;99.90;;;;;;4991217;28;20574;-36
2021/04/12 11:31:40;;;;;;;2.83;1.55;;;9.90;99.90;;;;;;4983179;28;20208;-36
2021/04/12 11:34:16;;;;;;;1.85;1.42;;;9.60;99.90;;;;;;4991616;28;20596;-36
2021/04/12 11:37:06;;;;;;;5.15;1.73;;;9.50;99.90;;;;;;4975494;28;20587;-36
2021/04/12 11:39:38;;;;;;;4.90;1.98;;;9.20;99.90;;;;;;4987118;28;20220;-36
2021/04/12 11:42:10;;;;;;;4.15;1.80;;;9.10;99.90;;;;;;4991123;28;20205;-35
2021/04/12 11:44:44;;;;;;;4.90;2.15;;;9.10;99.90;;;;;;4990198;28;20213;-35
2021/04/12 11:47:26;;;;;;;1.15;1.08;;;9.30;99.90;;;;;;4977053;28;20225;-35
2021/04/12 11:50:20;;;;;;;2.35;1.27;;;9.80;99.90;;;;;;4982787;28;20214;-36
2021/04/12 11:52:57;;;;;;;2.95;1.35;;;10.00;99.90;;;;;;4987183;28;20207;-39
2021/04/12 11:55:30;;;;;;;2.78;1.20;;;10.30;99.90;;;;;;4989069;28;20227;-39
2021/04/12 11:58:04;;;;;;;2.63;1.58;;;10.30;99.90;;;;;;4978459;28;20222;-37
2021/04/12 12:00:40;;;;;;;2.28;1.33;;;10.00;99.90;;;;;;4979314;28;20225;-39
2021/04/12 12:03:47;;;;;;;4.35;1.40;;;9.90;99.90;;;;;;4991922;28;20251;-37
2021/04/12 12:06:39;;;;;;;3.03;1.45;;;9.60;99.90;;;;;;4971090;28;20306;-38
2021/04/12 12:09:15;;;;;;;1.88;1.40;;;9.00;99.90;;;;;;4973221;28;20711;-36
2021/04/12 12:11:50;;;;;;;1.10;0.98;;;9.10;99.90;;;;;;4968863;28;20669;-36
2021/04/12 12:14:27;;;;;;;1.55;1.45;;;9.30;99.90;;;;;;4968570;28;20202;-39
2021/04/12 12:16:57;;;;;;;3.08;1.17;;;9.40;99.90;;;;;;4968858;28;20314;-36
2021/04/12 12:19:36;;;;;;;2.47;1.48;;;9.00;99.90;;;;;;4962054;28;20222;-37
2021/04/12 12:22:08;;;;;;;3.03;1.55;;;8.60;99.90;;;;;;4963971;28;20228;-37
2021/04/12 12:24:45;;;;;;;4.70;1.60;;;8.20;99.90;;;;;;4965776;28;20276;-37
2021/04/12 12:27:18;;;;;;;4.85;1.77;;;8.00;99.90;;;;;;4972990;28;20217;-37
2021/04/12 12:29:49;;;;;;;1.25;0.80;;;9.00;99.90;;;;;;4973694;28;20213;-37
2021/04/12 12:32:38;;;;;;;1.10;1.00;;;9.30;99.90;;;;;;4973103;28;20225;-37
2021/04/12 12:35:16;;;;;;;1.25;1.10;;;9.40;99.90;;;;;;4973277;28;20692;-37
2021/04/12 12:38:02;;;;;;;2.33;1.92;;;10.50;99.90;;;;;;4960950;28;20716;-37
2021/04/12 12:40:35;;;;;;;2.40;1.58;;;11.50;99.90;;;;;;4971002;28;20193;-38
2021/04/12 12:43:05;;;;;;;1.45;0.95;;;11.90;99.90;;;;;;4968449;28;20194;-37
2021/04/12 12:45:36;;;;;;;1.55;1.45;;;10.80;99.90;;;;;;4973075;28;20228;-38
2021/04/12 12:48:13;;;;;;;2.83;1.30;;;10.30;99.90;;;;;;4972093;28;20218;-37
2021/04/12 12:50:56;;;;;;;2.00;1.50;;;9.90;99.90;;;;;;4973284;28;20210;-36
2021/04/12 12:53:28;;;;;;;1.88;0.90;;;8.80;99.90;;;;;;4972449;28;20281;-36
2021/04/12 12:56:04;;;;;;;3.83;1.25;;;8.30;99.90;;;;;;4971614;28;20501;-37
2021/04/12 12:58:33;;;;;;;3.28;2.03;;;7.90;99.90;;;;;;4965396;28;20288;-36
2021/04/12 13:01:01;;;;;;;1.27;1.10;;;8.00;99.90;;;;;;4969232;28;20198;-36
2021/04/12 13:03:35;;;;;;;1.50;1.23;;;8.10;99.90;;;;;;4970133;28;20776;-36
2021/04/12 13:06:14;;;;;;;1.58;1.48;;;8.40;99.90;;;;;;4971713;28;20269;-37
2021/04/12 13:08:49;;;;;;;3.00;1.38;;;8.30;99.90;;;;;;4968805;28;20249;-35
2021/04/12 13:11:33;;;;;;;2.22;1.60;;;8.00;99.90;;;;;;4971482;28;20193;-37
2021/04/12 13:14:13;;;;;;;2.67;1.45;;;8.20;99.90;;;;;;4971510;28;20206;-37
2021/04/12 13:16:41;;;;;;;1.90;1.30;;;8.00;99.90;;;;;;4972170;28;20616;-37
2021/04/12 13:19:09;;;;;;;2.97;1.55;;;8.40;99.90;;;;;;4971869;28;20610;-36
2021/04/12 13:21:39;;;;;;;4.93;1.45;;;9.10;99.90;;;;;;4971450;28;20209;-36
2021/04/12 13:24:11;;;;;;;4.20;1.30;;;9.80;99.90;;;;;;4965866;28;20230;-37
2021/04/12 13:26:42;;;;;;;2.53;1.70;;;10.50;99.90;;;;;;4971714;28;20221;-36
2021/04/12 13:29:14;;;;;;;3.50;2.15;;;11.10;99.90;;;;;;4971769;28;20290;-35
2021/04/12 13:31:45;;;;;;;1.63;1.10;;;11.20;99.90;;;;;;4969404;28;20212;-37
2021/04/12 13:34:18;;;;;;;2.60;1.42;;;10.70;99.90;;;;;;4970561;28;20732;-36
2021/04/12 13:36:51;;;;;;;2.42;1.10;;;10.30;99.90;;;;;;4970878;28;20799;-36
2021/04/12 13:39:29;;;;;;;1.50;1.40;;;9.90;99.90;;;;;;4969489;28;20285;-36
2021/04/12 13:41:58;;;;;;;0.93;0.93;;;9.50;99.90;;;;;;4968319;28;20283;-37
2021/04/12 13:44:26;;;;;;;1.52;1.27;;;9.20;99.90;;;;;;4966535;28;20226;-36
2021/04/12 13:47:00;;;;;;;1.65;1.02;;;9.60;99.90;;;;;;4969443;28;20545;-37
2021/04/12 13:49:36;;;;;;;5.78;1.13;;;9.90;99.90;;;;;;4969012;28;20220;-37
2021/04/12 13:52:07;;;;;;;3.08;1.30;;;10.30;99.90;;;;;;4969551;28;20223;-36
2021/04/12 13:54:42;;;;;;;1.17;1.05;;;10.90;99.90;;;;;;4965182;28;20201;-37
2021/04/12 13:57:18;;;;;;;1.27;1.20;;;11.20;99.90;;;;;;4970020;28;20221;-37
2021/04/12 13:59:51;;;;;;;2.95;1.58;;;11.30;99.90;;;;;;4968068;28;20231;-37
2021/04/12 14:02:25;;;;;;;1.67;1.02;;;10.80;99.90;;;;;;4966107;28;20315;-36
2021/04/12 14:05:06;;;;;;;2.15;1.65;;;10.00;99.90;;;;;;4969805;28;20280;-36
2021/04/12 14:07:42;;;;;;;2.78;1.55;;;9.70;99.90;;;;;;4968158;28;20225;-37
2021/04/12 14:10:16;;;;;;;2.67;1.05;;;10.70;99.90;;;;;;4971444;28;20194;-37
2021/04/12 14:12:52;;;;;;;1.48;1.05;;;12.10;99.90;;;;;;4969396;28;20779;-37
2021/04/12 14:15:31;;;;;;;2.63;1.10;;;13.30;99.90;;;;;;4970542;28;20186;-38
2021/04/12 14:18:02;;;;;;;3.20;1.25;;;13.60;99.90;;;;;;4970686;28;20225;-36
2021/04/12 14:20:38;;;;;;;3.20;1.08;;;13.90;99.90;;;;;;4962521;28;20202;-36
2021/04/12 14:23:16;;;;;;;1.50;1.40;;;15.20;99.90;;;;;;4965982;28;20289;-39
2021/04/12 14:25:44;;;;;;;2.10;0.73;;;15.70;99.90;;;;;;4962813;28;20222;-37
2021/04/12 14:28:18;;;;;;;1.02;0.85;;;15.50;99.90;;;;;;4970368;28;20210;-37
2021/04/12 14:30:48;;;;;;;3.97;1.58;;;14.70;99.90;;;;;;4966251;28;20606;-38
2021/04/12 14:33:20;;;;;;;2.25;1.42;;;13.60;99.90;;;;;;4965756;28;20678;-36
2021/04/12 14:35:57;;;;;;;3.33;1.48;;;11.60;99.90;;;;;;4970817;28;20220;-34
2021/04/12 14:38:25;;;;;;;3.15;2.40;;;9.80;99.90;;;;;;4969547;28;20209;-34
2021/04/12 14:40:56;;;;;;;5.55;1.92;;;8.60;99.90;;;;;;4969781;28;20314;-35